首页
METAR-TAF:

METAR-TAF

机场 :

楠府機場

Nan, 泰国

纬度: 18-46N, 经度: 100-46E, 海拔: 200米

当前天气观测

该预报发布于37分钟前的10:00 UTC
风速7节,风向,在东南西南之间变化
温度 34°C
湿度 56%
气压 1002 hPa
能见度10公里或以上
少量云层高于4500英尺

METAR: VTCN 191000Z 18007KT 140V220 9999 FEW045 34/24 Q1002 NOSIG

时间: 17:37 (10:37 UTC)

预报

该预报发布于5小时和37分钟前的05:00 UTC
预报有效从19日的 06点(UTC)到 20日的 06点(UTC)
风速5节,风向
能见度10公里或以上
散云层高于2500英尺
短暂存在
从 19日的 09点(UTC)到 19日的 15点(UTC)
少量云层高于2000英尺, 积雨云.
多云层高于2500英尺
雷暴, 小雨,

TAF: VTCN 190500Z 1906/2006 19005KT 9999 SCT025 TEMPO 1909/1915 -TSRA FEW020CB BKN025

超过4000个机场的气象观测和天气预报(METAR&TAF报告)。

可查询的气象台以黄色和红色小点在地图上表示。

将鼠标移到小点上方,可查看气象台名称。

然后点击查看天气观测和预报。

如需切换地图:点击带黑十字的绿色按钮放大地图;点击带横线的绿色按钮缩小地图;或者点击绿色箭头查看邻近地区的地图。


METAR-TAF: